Time;durP1;ratioP1;P1;durP2;ratioP2;P2;SDS_P1;SDS_P2;PMS_P1;PMS_P2;Temp;Humidity;BMP_temperature;BMP_pressure;BME280_temperature;BME280_humidity;BME280_pressure;Samples;Min_cycle;Max_cycle;Signal;HPM_P1;HPM_P2
2021/05/30 00:06:29;;;;;;;11.73;5.40;;;19.70;55.50;;;;;;20743396;28;20038;-22
2021/05/30 00:16:29;;;;;;;12.40;6.28;;;19.70;55.40;;;;;;20822883;23;20173;-21
2021/05/30 00:26:30;;;;;;;9.00;5.40;;;19.60;55.40;;;;;;20753847;28;20030;-21
2021/05/30 00:36:31;;;;;;;10.55;4.75;;;19.60;55.50;;;;;;20753155;28;20034;-22
2021/05/30 00:46:32;;;;;;;6.63;4.90;;;19.60;55.50;;;;;;20758944;28;20025;-22
2021/05/30 00:56:32;;;;;;;10.00;4.95;;;19.60;55.50;;;;;;20739584;28;20022;-21
2021/05/30 01:06:34;;;;;;;10.00;4.90;;;19.60;55.50;;;;;;20745162;28;20092;-21
2021/05/30 01:16:35;;;;;;;6.95;4.15;;;19.50;56.00;;;;;;20753240;28;20033;-22
2021/05/30 01:26:38;;;;;;;10.30;5.47;;;19.50;55.40;;;;;;20769522;28;20056;-22
2021/05/30 01:36:38;;;;;;;6.85;4.63;;;19.50;55.30;;;;;;20754036;28;20033;-22
2021/05/30 01:46:39;;;;;;;8.77;4.43;;;19.50;55.20;;;;;;20753940;28;20648;-22
2021/05/30 01:56:57;;;;;;;8.90;4.67;;;19.50;55.20;;;;;;20755512;28;20034;-21
2021/05/30 02:06:59;;;;;;;5.80;4.27;;;19.50;55.10;;;;;;20757307;28;20444;-22
2021/05/30 02:17:00;;;;;;;6.38;4.40;;;19.50;55.00;;;;;;20759049;28;20451;-22
2021/05/30 02:27:01;;;;;;;5.45;4.38;;;19.50;54.90;;;;;;20755463;28;20026;-22
2021/05/30 02:37:02;;;;;;;7.93;5.18;;;19.40;54.80;;;;;;20762874;28;20139;-22
2021/05/30 02:47:03;;;;;;;6.70;4.72;;;19.40;54.80;;;;;;20767611;28;20082;-22
2021/05/30 02:57:04;;;;;;;6.57;4.07;;;19.40;54.60;;;;;;20755560;28;20081;-21
2021/05/30 03:07:05;;;;;;;5.25;4.13;;;19.40;54.70;;;;;;20756657;28;20033;-22
2021/05/30 03:17:06;;;;;;;6.97;4.15;;;19.30;54.50;;;;;;20760847;28;20042;-22
2021/05/30 03:27:06;;;;;;;6.38;4.45;;;19.40;54.50;;;;;;20763829;28;20034;-21
2021/05/30 03:37:07;;;;;;;6.05;3.95;;;19.30;54.40;;;;;;20756216;28;20108;-22
2021/05/30 03:47:11;;;;;;;6.10;3.90;;;19.30;54.30;;;;;;20743527;28;20485;-22
2021/05/30 03:57:12;;;;;;;5.80;4.45;;;19.30;54.30;;;;;;20744763;28;20057;-22
2021/05/30 04:07:12;;;;;;;5.70;4.47;;;19.30;54.20;;;;;;20765288;28;20021;-22
2021/05/30 04:17:13;;;;;;;5.13;4.05;;;19.30;54.10;;;;;;20743772;28;20612;-22
2021/05/30 04:27:14;;;;;;;4.45;3.58;;;19.30;54.10;;;;;;20747167;28;20022;-22
2021/05/30 04:37:14;;;;;;;5.80;4.00;;;19.30;54.00;;;;;;20753796;28;20436;-22
2021/05/30 04:47:15;;;;;;;8.80;3.65;;;19.30;53.90;;;;;;20750653;28;20030;-22
2021/05/30 04:57:16;;;;;;;5.18;4.47;;;19.30;54.00;;;;;;20747095;28;20041;-21
2021/05/30 05:07:17;;;;;;;6.30;4.00;;;19.30;54.00;;;;;;20745548;28;20392;-20
2021/05/30 05:17:17;;;;;;;4.93;4.25;;;19.30;53.90;;;;;;20747692;28;20034;-21
2021/05/30 05:27:18;;;;;;;4.15;3.75;;;19.30;54.00;;;;;;20746766;28;20036;-21
2021/05/30 05:37:18;;;;;;;4.43;3.30;;;19.30;53.90;;;;;;20755411;28;20030;-21
2021/05/30 05:47:19;;;;;;;5.60;3.72;;;19.30;53.90;;;;;;20755985;28;20544;-21
2021/05/30 05:57:20;;;;;;;4.28;3.10;;;19.20;53.90;;;;;;20743942;28;20113;-22
2021/05/30 06:07:20;;;;;;;4.60;3.57;;;19.30;53.90;;;;;;20749631;28;20030;-21
2021/05/30 06:17:22;;;;;;;4.10;3.25;;;19.30;53.90;;;;;;20763885;28;20468;-22
2021/05/30 06:27:23;;;;;;;3.90;2.95;;;19.60;53.00;;;;;;20773188;28;20038;-22
2021/05/30 06:37:24;;;;;;;4.72;2.92;;;20.20;51.60;;;;;;20746847;28;20053;-22
2021/05/30 06:47:24;;;;;;;6.35;3.53;;;20.90;50.10;;;;;;20754234;28;20026;-22
2021/05/30 06:57:25;;;;;;;4.15;2.58;;;21.50;49.00;;;;;;20749526;28;20057;-22
2021/05/30 07:07:26;;;;;;;7.80;2.05;;;22.20;47.90;;;;;;20764529;28;20398;-21
2021/05/30 07:17:27;;;;;;;25.80;4.57;;;22.60;47.00;;;;;;20758519;28;20026;-22
2021/05/30 07:27:27;;;;;;;7.63;3.28;;;22.60;47.30;;;;;;20757125;28;20083;-22
2021/05/30 07:37:28;;;;;;;5.82;2.80;;;22.50;48.10;;;;;;20749451;28;20600;-22
2021/05/30 07:47:28;;;;;;;10.55;3.30;;;22.30;48.50;;;;;;20752993;28;20040;-21
2021/05/30 07:57:29;;;;;;;11.77;4.28;;;22.10;49.20;;;;;;20744262;28;20026;-21
2021/05/30 08:07:30;;;;;;;11.65;4.03;;;22.10;49.60;;;;;;20748633;28;20405;-22
2021/05/30 08:17:31;;;;;;;17.23;4.50;;;21.80;50.10;;;;;;20740419;28;20381;-22
2021/05/30 08:27:32;;;;;;;22.45;3.72;;;21.80;50.20;;;;;;20752646;28;20483;-21
2021/05/30 08:37:41;;;;;;;17.02;5.55;;;21.70;50.60;;;;;;20738851;28;20026;-20
2021/05/30 08:47:41;;;;;;;11.57;4.72;;;21.60;50.70;;;;;;20740233;28;20022;-22
2021/05/30 08:57:42;;;;;;;17.48;5.20;;;21.40;51.10;;;;;;20741304;28;20049;-22
2021/05/30 09:07:47;;;;;;;10.70;4.35;;;21.30;51.50;;;;;;20750051;28;20038;-21
2021/05/30 09:18:15;;;;;;;18.60;4.82;;;21.10;52.10;;;;;;20705128;28;1317630;-22
2021/05/30 09:28:21;;;;;;;31.52;6.03;;;20.90;52.50;;;;;;20752446;28;20512;-21
2021/05/30 09:38:29;;;;;;;18.83;5.45;;;20.80;53.00;;;;;;20750423;28;20029;-21
2021/05/30 09:48:32;;;;;;;23.17;5.37;;;21.20;52.60;;;;;;20754304;28;20109;-21
2021/05/30 09:58:32;;;;;;;22.92;5.75;;;20.90;53.60;;;;;;20738224;28;20511;-21
2021/05/30 10:08:34;;;;;;;44.88;10.10;;;20.60;53.70;;;;;;20750809;28;20037;-21
2021/05/30 10:18:42;;;;;;;21.10;6.75;;;20.60;54.50;;;;;;20727606;28;20029;-21
2021/05/30 10:29:18;;;;;;;12.47;4.90;;;20.50;55.10;;;;;;20757201;28;20037;-20
2021/05/30 10:39:33;;;;;;;9.43;4.85;;;20.40;52.90;;;;;;20763103;28;20037;-20
2021/05/30 10:50:11;;;;;;;7.63;3.83;;;20.30;48.50;;;;;;20767048;28;20503;-21
2021/05/30 11:00:20;;;;;;;6.75;3.90;;;20.20;48.10;;;;;;20761915;28;20508;-20
2021/05/30 11:10:21;;;;;;;6.13;3.47;;;20.00;47.90;;;;;;20755517;28;20041;-21
2021/05/30 11:20:28;;;;;;;5.45;3.53;;;20.00;48.10;;;;;;20761287;28;20034;-21
2021/05/30 11:30:40;;;;;;;9.80;3.08;;;19.90;47.60;;;;;;20743923;28;20025;-21
2021/05/30 11:40:41;;;;;;;5.45;3.65;;;19.90;46.40;;;;;;20768087;28;20085;-21
2021/05/30 11:50:51;;;;;;;5.82;3.13;;;19.80;46.50;;;;;;20753505;28;20473;-21
2021/05/30 12:01:00;;;;;;;5.75;2.90;;;19.80;47.10;;;;;;20746974;28;20030;-21
2021/05/30 12:11:01;;;;;;;;;;;19.70;46.30;;;;;;20748531;28;20040;-21
2021/05/30 12:21:02;;;;;;;10.20;2.55;;;19.80;42.80;;;;;;20971652;23;19944;-21
2021/05/30 12:31:05;;;;;;;4.25;2.42;;;19.70;43.60;;;;;;20833991;28;20021;-21
2021/05/30 12:41:13;;;;;;;2.35;1.80;;;19.70;43.60;;;;;;20831177;28;20041;-21
2021/05/30 12:51:19;;;;;;;3.80;2.10;;;19.60;42.90;;;;;;20850382;28;20041;-21
2021/05/30 13:01:24;;;;;;;4.20;1.63;;;19.70;43.50;;;;;;20833332;28;20026;-21
2021/05/30 13:11:31;;;;;;;3.58;1.83;;;19.60;41.50;;;;;;20825396;28;20025;-21
2021/05/30 13:21:33;;;;;;;4.45;2.35;;;19.60;43.00;;;;;;20823443;28;20032;-21
2021/05/30 13:31:33;;;;;;;4.20;2.33;;;19.60;40.80;;;;;;20824497;28;20017;-21
2021/05/30 13:41:34;;;;;;;4.90;2.00;;;19.70;41.50;;;;;;20818548;28;20105;-21
2021/05/30 13:51:34;;;;;;;3.85;2.10;;;19.60;41.10;;;;;;20833202;28;20415;-21
2021/05/30 14:01:35;;;;;;;5.53;2.30;;;19.80;41.60;;;;;;20818610;28;20112;-21
2021/05/30 14:11:35;;;;;;;7.13;2.33;;;19.80;41.30;;;;;;20821953;28;20025;-19
2021/05/30 14:21:36;;;;;;;3.17;1.95;;;19.70;41.50;;;;;;20816967;28;20033;-21
2021/05/30 14:31:37;;;;;;;5.55;2.75;;;19.80;41.80;;;;;;20827893;28;20025;-21
2021/05/30 14:41:39;;;;;;;6.10;2.20;;;19.80;41.30;;;;;;20831011;28;20312;-21
2021/05/30 14:51:40;;;;;;;5.18;2.35;;;19.80;42.30;;;;;;20830136;28;20865;-21
2021/05/30 15:01:40;;;;;;;3.35;2.50;;;19.80;41.10;;;;;;20830173;28;20112;-21
2021/05/30 15:11:41;;;;;;;4.85;2.65;;;19.80;41.60;;;;;;20834515;28;20052;-22
2021/05/30 15:21:44;;;;;;;6.28;2.95;;;20.00;41.50;;;;;;20833637;28;20057;-22
2021/05/30 15:31:47;;;;;;;4.00;2.17;;;20.00;40.60;;;;;;20841476;28;20496;-21
2021/05/30 15:41:48;;;;;;;4.55;2.17;;;20.00;39.00;;;;;;20854016;28;20033;-21
2021/05/30 15:51:48;;;;;;;3.85;2.65;;;20.10;39.20;;;;;;20851488;28;20083;-21
2021/05/30 16:01:49;;;;;;;4.15;1.83;;;20.20;38.10;;;;;;20840951;28;20029;-21
2021/05/30 16:11:50;;;;;;;4.93;3.00;;;20.30;37.80;;;;;;20836867;28;20099;-21
2021/05/30 16:21:50;;;;;;;3.17;2.03;;;20.40;37.80;;;;;;20835212;28;20368;-20
2021/05/30 16:31:52;;;;;;;3.95;2.15;;;20.50;37.60;;;;;;20836285;28;20038;-21
2021/05/30 16:41:53;;;;;;;6.32;2.72;;;20.50;37.30;;;;;;20846444;28;20029;-21
2021/05/30 16:51:53;;;;;;;3.33;1.83;;;20.60;37.90;;;;;;20840596;28;20038;-21
2021/05/30 17:01:54;;;;;;;4.95;2.60;;;20.70;37.60;;;;;;20835439;28;20128;-22
2021/05/30 17:11:55;;;;;;;3.78;2.28;;;20.50;37.80;;;;;;20830639;28;20057;-21
2021/05/30 17:21:55;;;;;;;4.13;2.70;;;20.70;37.30;;;;;;20829547;28;20121;-22
2021/05/30 17:31:56;;;;;;;4.65;2.78;;;20.60;37.50;;;;;;20821750;28;20029;-20
2021/05/30 17:41:56;;;;;;;3.67;2.37;;;20.70;38.10;;;;;;20833669;28;20034;-21
2021/05/30 17:51:57;;;;;;;6.18;2.92;;;20.60;38.80;;;;;;20845650;28;20048;-22
2021/05/30 18:01:58;;;;;;;4.65;2.42;;;20.50;39.20;;;;;;20847115;28;20041;-21
2021/05/30 18:11:59;;;;;;;3.88;2.63;;;20.50;39.70;;;;;;20866144;28;20033;-20
2021/05/30 18:22:01;;;;;;;5.80;2.67;;;20.40;40.20;;;;;;20849918;28;20034;-21
2021/05/30 18:32:01;;;;;;;10.38;2.97;;;20.30;41.90;;;;;;20835652;28;20064;-22
2021/05/30 18:42:02;;;;;;;7.78;3.30;;;20.30;43.80;;;;;;20833618;28;20480;-19
2021/05/30 18:52:03;;;;;;;12.27;3.08;;;20.20;43.00;;;;;;20831357;28;20361;-20
2021/05/30 19:02:07;;;;;;;4.88;3.08;;;20.10;44.30;;;;;;20833388;28;20476;-21
2021/05/30 19:12:08;;;;;;;4.78;2.88;;;20.10;44.50;;;;;;20832614;28;20040;-21
2021/05/30 19:22:08;;;;;;;6.28;2.60;;;20.10;44.20;;;;;;20828531;28;20037;-20
2021/05/30 19:32:09;;;;;;;10.25;2.85;;;20.10;45.30;;;;;;20841836;28;20115;-20
2021/05/30 19:42:09;;;;;;;6.13;3.10;;;20.70;46.20;;;;;;20826215;28;20021;-21
2021/05/30 19:52:10;;;;;;;5.07;2.58;;;22.10;44.70;;;;;;20825025;28;20131;-21
2021/05/30 20:02:11;;;;;;;8.35;2.90;;;22.80;44.00;;;;;;20825281;28;20022;-20
2021/05/30 20:12:12;;;;;;;4.13;2.53;;;22.70;44.80;;;;;;20825908;28;20033;-21
2021/05/30 20:22:13;;;;;;;4.22;2.40;;;22.50;45.90;;;;;;20835424;28;20045;-21
2021/05/30 20:32:13;;;;;;;7.90;2.55;;;22.20;46.70;;;;;;20839428;28;20025;-19
2021/05/30 20:42:15;;;;;;;9.35;2.40;;;22.00;47.50;;;;;;20843751;28;20025;-20
2021/05/30 20:52:16;;;;;;;5.65;2.67;;;21.80;48.60;;;;;;20845625;28;20022;-21
2021/05/30 21:02:16;;;;;;;5.30;2.95;;;21.60;49.10;;;;;;20858764;28;20044;-21
2021/05/30 21:12:17;;;;;;;7.55;3.08;;;21.40;49.30;;;;;;20826870;28;20076;-20
2021/05/30 21:22:17;;;;;;;7.85;3.10;;;21.40;49.90;;;;;;20805873;28;20083;-20
2021/05/30 21:32:18;;;;;;;6.60;2.50;;;21.30;50.20;;;;;;20827060;28;20029;-20
2021/05/30 21:42:22;;;;;;;5.07;2.80;;;21.30;50.50;;;;;;20837870;28;20033;-22
2021/05/30 21:52:24;;;;;;;6.95;3.03;;;21.10;50.90;;;;;;20853092;28;20391;-21
2021/05/30 22:02:25;;;;;;;6.85;3.42;;;21.00;51.50;;;;;;20846229;28;20021;-21
2021/05/30 22:12:25;;;;;;;4.30;3.13;;;20.80;51.50;;;;;;20842240;28;20027;-21
2021/05/30 22:22:27;;;;;;;9.70;3.38;;;20.70;51.90;;;;;;20834090;28;20021;-21
2021/05/30 22:32:27;;;;;;;5.70;3.28;;;20.70;52.40;;;;;;20831000;28;20554;-20
2021/05/30 22:42:28;;;;;;;3.67;2.58;;;20.60;53.00;;;;;;20835105;28;20030;-20
2021/05/30 22:52:28;;;;;;;4.25;2.60;;;20.60;53.10;;;;;;20835861;28;20435;-21
2021/05/30 23:02:29;;;;;;;4.65;2.95;;;20.50;53.50;;;;;;20838794;28;20079;-20
2021/05/30 23:12:34;;;;;;;5.07;3.88;;;20.50;53.70;;;;;;20831455;28;20087;-21
2021/05/30 23:22:35;;;;;;;5.05;3.30;;;20.50;53.20;;;;;;20839922;28;20025;-20
2021/05/30 23:32:36;;;;;;;4.05;3.08;;;20.40;53.20;;;;;;20827276;28;20041;-21
2021/05/30 23:42:36;;;;;;;8.43;3.03;;;20.40;53.20;;;;;;20826384;28;20080;-20
2021/05/30 23:52:37;;;;;;;6.93;2.92;;;20.40;53.30;;;;;;20825495;28;20036;-21
